Time;durP1;ratioP1;P1;durP2;ratioP2;P2;SDS_P1;SDS_P2;PMS_P1;PMS_P2;Temp;Humidity;BMP_temperature;BMP_pressure;BME280_temperature;BME280_humidity;BME280_pressure;Samples;Min_cycle;Max_cycle;Signal;HPM_P1;HPM_P2
2022/03/09 00:00:48;;;;;;;6.65;4.20;;;;;;;17.01;38.50;102178.53;5123862;28;20059;-58
2022/03/09 00:03:14;;;;;;;5.85;3.55;;;;;;;17.01;38.30;102189.28;5124042;28;20026;-58
2022/03/09 00:05:39;;;;;;;6.90;3.65;;;;;;;17.00;38.34;102187.56;5124125;28;20034;-58
2022/03/09 00:08:04;;;;;;;5.45;3.30;;;;;;;16.99;38.28;102188.53;5122468;28;20028;-57
2022/03/09 00:10:29;;;;;;;7.78;4.30;;;;;;;16.97;38.27;102177.91;5117479;28;20024;-58
2022/03/09 00:12:55;;;;;;;4.72;3.38;;;;;;;16.97;38.38;102182.44;5118746;28;20464;-58
2022/03/09 00:15:20;;;;;;;6.00;3.72;;;;;;;16.96;38.32;102191.50;5123980;28;20038;-57
2022/03/09 00:17:45;;;;;;;4.38;3.33;;;;;;;16.94;38.34;102182.69;5124802;28;20169;-57
2022/03/09 00:20:11;;;;;;;4.63;3.10;;;;;;;16.93;38.35;102186.34;5124112;28;20043;-58
2022/03/09 00:22:36;;;;;;;5.22;3.22;;;;;;;16.91;38.43;102183.81;5123918;28;20031;-56
2022/03/09 00:25:02;;;;;;;4.13;3.05;;;;;;;16.91;38.39;102188.31;5123333;28;20452;-57
2022/03/09 00:27:27;;;;;;;4.50;3.08;;;;;;;16.88;38.45;102181.34;5124231;28;20027;-58
2022/03/09 00:29:53;;;;;;;4.82;3.35;;;;;;;16.87;38.47;102190.41;5123354;28;20108;-58
2022/03/09 00:32:18;;;;;;;3.42;2.78;;;;;;;16.86;38.52;102191.34;5123886;28;20212;-58
2022/03/09 00:34:43;;;;;;;5.13;3.38;;;;;;;16.84;38.43;102187.97;5123964;28;20044;-58
2022/03/09 00:37:08;;;;;;;4.53;3.17;;;;;;;16.84;38.40;102193.31;5123514;28;20019;-58
2022/03/09 00:39:34;;;;;;;5.35;3.13;;;;;;;16.83;38.43;102191.63;5123385;28;20110;-56
2022/03/09 00:41:59;;;;;;;3.80;2.95;;;;;;;16.81;38.47;102196.25;5123658;28;20023;-58
2022/03/09 00:44:24;;;;;;;5.18;3.30;;;;;;;16.81;38.46;102200.78;5122015;28;20039;-59
2022/03/09 00:46:50;;;;;;;3.63;2.88;;;;;;;16.79;38.55;102203.59;5123791;28;20026;-58
2022/03/09 00:49:15;;;;;;;4.38;3.03;;;;;;;16.79;38.43;102200.91;5123768;28;20065;-58
2022/03/09 00:51:40;;;;;;;4.00;2.70;;;;;;;16.78;38.44;102206.38;5123768;28;20027;-58
2022/03/09 00:54:07;;;;;;;4.93;3.42;;;;;;;16.75;38.44;102204.81;5123542;28;20039;-56
2022/03/09 00:56:33;;;;;;;5.05;3.33;;;;;;;16.74;38.44;102206.66;5123522;28;20568;-58
2022/03/09 00:58:58;;;;;;;4.40;3.00;;;;;;;16.72;38.57;102199.66;5123398;28;20031;-58
2022/03/09 01:01:23;;;;;;;4.15;2.90;;;;;;;16.66;38.71;102198.31;5123618;28;20105;-58
2022/03/09 01:03:49;;;;;;;4.65;3.15;;;;;;;16.70;38.73;102207.00;5123582;28;20042;-58
2022/03/09 01:06:14;;;;;;;3.83;3.17;;;;;;;16.68;38.57;102203.56;5126867;28;20090;-58
2022/03/09 01:08:39;;;;;;;3.90;2.97;;;;;;;16.68;38.63;102200.88;5126841;28;20391;-58
2022/03/09 01:11:05;;;;;;;4.68;3.10;;;;;;;16.66;38.53;102198.31;5115595;28;20455;-58
2022/03/09 01:13:30;;;;;;;3.38;2.58;;;;;;;16.65;38.49;102199.31;5125734;28;20030;-57
2022/03/09 01:15:55;;;;;;;5.10;3.65;;;;;;;16.64;38.58;102205.63;5127160;28;20027;-58
2022/03/09 01:18:21;;;;;;;3.60;2.65;;;;;;;16.62;38.66;102204.91;5127315;28;20024;-58
2022/03/09 01:20:46;;;;;;;3.40;2.67;;;;;;;16.60;38.60;102196.09;5127136;28;20075;-58
2022/03/09 01:23:11;;;;;;;4.25;2.88;;;;;;;16.61;38.65;102195.16;5127166;28;20138;-58
2022/03/09 01:25:37;;;;;;;4.28;2.72;;;;;;;16.59;38.64;102194.41;5126482;28;20042;-58
2022/03/09 01:28:02;;;;;;;3.40;2.70;;;;;;;16.58;38.58;102194.53;5127180;28;20055;-58
2022/03/09 01:30:27;;;;;;;4.05;2.75;;;;;;;16.57;38.66;102191.00;5126582;28;20055;-58
2022/03/09 01:32:53;;;;;;;4.18;2.72;;;;;;;16.56;38.63;102189.25;5126975;28;20027;-58
2022/03/09 01:35:18;;;;;;;4.60;3.03;;;;;;;16.55;38.55;102197.44;5126847;28;20019;-59
2022/03/09 01:37:45;;;;;;;4.07;2.67;;;;;;;16.55;38.53;102194.78;5126302;28;20028;-58
2022/03/09 01:40:11;;;;;;;3.53;2.70;;;;;;;16.53;38.58;102189.53;5126255;28;20027;-58
2022/03/09 01:42:36;;;;;;;3.28;2.28;;;;;;;16.53;38.60;102180.63;5126447;28;20038;-58
2022/03/09 01:45:07;;;;;;;3.40;2.55;;;;;;;16.51;38.64;102175.38;5126016;28;20031;-57
2022/03/09 01:47:32;;;;;;;3.22;2.53;;;;;;;16.49;38.59;102178.19;5126532;28;20536;-58
2022/03/09 01:49:57;;;;;;;3.20;2.50;;;;;;;16.48;38.59;102175.59;5126629;28;20060;-59
2022/03/09 01:52:23;;;;;;;3.45;2.50;;;;;;;16.41;38.53;102160.97;5126501;28;20035;-59
2022/03/09 01:54:51;;;;;;;4.18;2.40;;;;;;;16.41;38.55;102159.13;5126092;28;20053;-57
2022/03/09 01:57:16;;;;;;;3.03;2.60;;;;;;;16.44;38.66;102164.28;5126968;28;20028;-58
2022/03/09 01:59:42;;;;;;;2.75;2.30;;;;;;;16.41;38.61;102160.97;5125937;28;20043;-58
2022/03/09 02:02:07;;;;;;;4.13;2.88;;;;;;;16.41;38.60;102159.13;5125164;28;20032;-58
2022/03/09 02:04:33;;;;;;;3.58;2.85;;;;;;;16.40;38.55;102156.59;5126422;28;20081;-59
2022/03/09 02:06:58;;;;;;;3.80;2.75;;;;;;;16.40;38.60;102164.66;5125955;28;20020;-58
2022/03/09 02:09:41;;;;;;;3.42;2.60;;;;;;;16.39;38.65;102154.84;5125713;28;20019;-58
2022/03/09 02:12:11;;;;;;;3.03;2.60;;;;;;;16.38;38.48;102151.31;5113449;28;20027;-57
2022/03/09 02:14:37;;;;;;;;;;;;;;;16.34;38.60;102151.69;5126208;28;20085;-58
2022/03/09 02:17:06;;;;;;;3.17;2.50;;;;;;;16.35;38.59;102150.72;5125085;28;19911;-58
2022/03/09 02:19:32;;;;;;;4.50;2.92;;;;;;;16.32;38.70;102150.97;5125854;28;20132;-58
2022/03/09 02:22:19;;;;;;;3.38;2.55;;;;;;;16.31;38.59;102146.56;5126194;28;20024;-58
2022/03/09 02:24:45;;;;;;;3.03;2.50;;;;;;;16.31;38.52;102151.91;5125828;28;20028;-57
2022/03/09 02:27:10;;;;;;;3.15;2.13;;;;;;;16.28;38.73;102150.34;5125781;28;20027;-58
2022/03/09 02:29:35;;;;;;;3.13;2.60;;;;;;;16.29;38.60;102145.84;5125185;28;20027;-58
2022/03/09 02:32:02;;;;;;;2.83;2.30;;;;;;;16.27;38.63;102148.66;5125815;28;20028;-58
2022/03/09 02:34:28;;;;;;;2.92;2.40;;;;;;;16.24;38.56;102146.19;5125926;28;20043;-57
2022/03/09 02:36:53;;;;;;;3.03;2.33;;;;;;;16.23;38.75;102152.56;5125429;28;20032;-58
2022/03/09 02:39:18;;;;;;;2.53;2.13;;;;;;;16.22;38.57;102153.50;5125368;28;20092;-58
2022/03/09 02:41:43;;;;;;;3.65;2.22;;;;;;;16.23;38.59;102157.91;5124930;28;20028;-58
2022/03/09 02:44:09;;;;;;;4.00;2.88;;;;;;;16.23;38.57;102157.91;5123591;28;20028;-58
2022/03/09 02:46:34;;;;;;;2.90;2.13;;;;;;;16.22;38.65;102156.19;5125401;28;20585;-58
2022/03/09 02:48:59;;;;;;;2.20;2.00;;;;;;;16.21;38.67;102152.66;5125531;28;20441;-58
2022/03/09 02:51:25;;;;;;;3.10;2.40;;;;;;;16.21;38.53;102155.34;5125489;27;20031;-59
2022/03/09 02:53:50;;;;;;;3.15;2.33;;;;;;;16.20;38.70;102152.78;5125435;28;20623;-58
2022/03/09 02:56:16;;;;;;;4.20;2.35;;;;;;;16.19;38.64;102149.25;5123448;28;20027;-58
2022/03/09 02:58:43;;;;;;;2.45;2.13;;;;;;;16.19;38.61;102145.72;5123089;28;20073;-58
2022/03/09 03:01:08;;;;;;;3.22;2.20;;;;;;;16.17;38.48;102143.13;5104281;28;20031;-57
2022/03/09 03:03:33;;;;;;;3.35;2.40;;;;;;;16.16;38.52;102143.28;5105125;28;20035;-58
2022/03/09 03:05:58;;;;;;;3.65;2.20;;;;;;;16.17;38.58;102147.66;5106456;28;20040;-58
2022/03/09 03:08:24;;;;;;;2.75;2.20;;;;;;;16.15;38.54;102145.09;5124017;28;20046;-58
2022/03/09 03:10:49;;;;;;;2.33;2.13;;;;;;;16.16;38.62;102148.63;5115591;28;20517;-57
2022/03/09 03:13:14;;;;;;;2.42;2.10;;;;;;;16.14;38.60;102143.41;5122383;28;20480;-57
2022/03/09 03:15:39;;;;;;;2.75;2.10;;;;;;;16.15;38.58;102157.66;5124642;28;20551;-58
2022/03/09 03:18:05;;;;;;;2.08;1.85;;;;;;;16.14;38.67;102153.25;5124914;28;20412;-58
2022/03/09 03:20:30;;;;;;;3.35;2.20;;;;;;;16.08;38.60;102149.22;5123546;28;20709;-58
2022/03/09 03:22:55;;;;;;;2.67;2.10;;;;;;;16.10;38.57;102157.16;5124987;28;20032;-58
2022/03/09 03:25:21;;;;;;;2.65;2.28;;;;;;;16.10;38.58;102162.50;5124367;28;20024;-58
2022/03/09 03:27:46;;;;;;;2.75;2.00;;;;;;;16.08;38.65;102159.97;5124612;28;20087;-58
2022/03/09 03:30:11;;;;;;;2.40;2.10;;;;;;;16.07;38.59;102158.25;5122656;28;20031;-57
2022/03/09 03:32:36;;;;;;;2.20;1.88;;;;;;;16.07;39.03;102162.78;5124683;28;20027;-58
2022/03/09 03:35:02;;;;;;;2.17;1.98;;;;;;;16.07;38.62;102166.31;5124782;28;20057;-58
2022/03/09 03:37:27;;;;;;;2.97;2.10;;;;;;;16.07;38.65;102160.09;5124293;28;20023;-58
2022/03/09 03:39:53;;;;;;;2.10;1.90;;;;;;;16.05;38.58;102160.19;5124174;28;20032;-56
2022/03/09 03:42:18;;;;;;;2.30;2.10;;;;;;;16.06;38.63;102158.38;5124056;28;20055;-58
2022/03/09 03:44:43;;;;;;;3.15;2.20;;;;;;;16.07;38.73;102162.78;5124053;28;20016;-58
2022/03/09 03:47:09;;;;;;;2.17;1.98;;;;;;;16.02;38.74;102155.09;5124269;28;20032;-57
2022/03/09 03:49:34;;;;;;;2.75;2.15;;;;;;;16.04;38.59;102158.50;5124473;28;20028;-58
2022/03/09 03:51:59;;;;;;;3.15;2.35;;;;;;;16.03;38.62;102156.78;5124246;28;20055;-55
2022/03/09 03:54:24;;;;;;;1.80;1.70;;;;;;;16.02;38.47;102163.13;5124196;28;20109;-57
2022/03/09 03:56:50;;;;;;;2.00;1.80;;;;;;;16.00;38.67;102165.91;5122475;28;20520;-58
2022/03/09 03:59:15;;;;;;;2.00;1.90;;;;;;;16.00;38.49;102160.53;5123760;28;20583;-58
2022/03/09 04:01:40;;;;;;;2.20;2.00;;;;;;;16.00;38.71;102173.09;5124096;28;20388;-58
2022/03/09 04:04:05;;;;;;;2.28;2.00;;;;;;;16.00;38.73;102173.97;5124253;28;20129;-57
2022/03/09 04:06:31;;;;;;;2.20;1.85;;;;;;;15.99;38.71;102177.63;5123851;28;20403;-57
2022/03/09 04:08:56;;;;;;;2.80;2.15;;;;;;;15.95;38.64;102170.78;5123939;28;20038;-58
2022/03/09 04:11:21;;;;;;;2.70;2.05;;;;;;;15.96;38.73;102174.31;5123498;28;20036;-58
2022/03/09 04:13:46;;;;;;;2.25;2.03;;;;;;;15.95;38.71;102169.94;5123504;28;20050;-58
2022/03/09 04:16:12;;;;;;;1.70;1.60;;;;;;;15.92;38.73;102176.38;5123927;28;20047;-57
2022/03/09 04:18:37;;;;;;;2.00;1.80;;;;;;;15.91;38.74;102180.03;5124213;28;20039;-58
2022/03/09 04:21:03;;;;;;;2.35;2.08;;;;;;;15.90;38.73;102172.97;5123951;28;20055;-58
2022/03/09 04:23:28;;;;;;;2.20;2.00;;;;;;;15.91;38.91;102176.50;5123815;28;20027;-57
2022/03/09 04:25:53;;;;;;;2.50;2.15;;;;;;;15.89;38.86;102182.00;5123594;28;20105;-58
2022/03/09 04:28:18;;;;;;;2.38;1.80;;;;;;;15.88;38.70;102190.13;5123908;28;20028;-58
2022/03/09 04:30:44;;;;;;;2.30;1.80;;;;;;;15.87;38.74;102189.28;5123720;28;20058;-58
2022/03/09 04:33:10;;;;;;;2.10;1.90;;;;;;;15.82;38.67;102174.53;5124025;28;20024;-58
2022/03/09 04:35:35;;;;;;;2.22;2.00;;;;;;;15.85;38.81;102187.72;5123966;28;20028;-58
2022/03/09 04:38:00;;;;;;;2.28;2.08;;;;;;;15.84;39.01;102188.66;5123820;28;20024;-58
2022/03/09 04:40:26;;;;;;;2.35;1.85;;;;;;;15.81;38.72;102184.41;5124724;28;20035;-56
2022/03/09 04:42:51;;;;;;;2.20;2.00;;;;;;;15.82;38.78;102179.91;5127874;28;20032;-58
2022/03/09 04:45:16;;;;;;;1.75;1.65;;;;;;;15.81;39.12;102188.94;5127371;28;20031;-58
2022/03/09 04:47:41;;;;;;;3.45;2.00;;;;;;;15.79;39.06;102189.03;5127571;28;20041;-58
2022/03/09 04:50:07;;;;;;;2.45;2.03;;;;;;;15.80;38.75;102189.88;5127883;28;20023;-56
2022/03/09 04:52:32;;;;;;;2.17;1.98;;;;;;;15.80;38.78;102189.88;5127687;27;20023;-56
2022/03/09 04:54:57;;;;;;;2.58;1.90;;;;;;;15.79;38.91;102185.50;5127440;28;20030;-55
2022/03/09 04:57:22;;;;;;;2.10;1.90;;;;;;;15.77;38.65;102177.56;5127376;28;20032;-58
2022/03/09 04:59:48;;;;;;;2.55;2.20;;;;;;;15.76;38.89;102175.88;5126847;28;20020;-58
2022/03/09 05:02:13;;;;;;;2.25;1.90;;;;;;;15.75;38.83;102185.72;5127477;28;20090;-55
2022/03/09 05:04:38;;;;;;;2.13;1.92;;;;;;;15.74;38.84;102184.00;5127570;28;20063;-58
2022/03/09 05:07:04;;;;;;;2.63;2.00;;;;;;;15.74;38.79;102180.47;5127078;28;20036;-58
2022/03/09 05:09:29;;;;;;;1.88;1.77;;;;;;;15.74;38.75;102180.47;5126057;28;20035;-58
2022/03/09 05:11:54;;;;;;;2.00;1.80;;;;;;;15.73;38.67;102179.63;5126625;28;20032;-58
2022/03/09 05:14:19;;;;;;;2.67;2.25;;;;;;;15.73;38.73;102181.47;5126789;28;20012;-58
2022/03/09 05:16:45;;;;;;;2.33;1.98;;;;;;;15.71;38.78;102184.22;5127324;28;20520;-58
2022/03/09 05:19:10;;;;;;;2.35;2.15;;;;;;;15.72;38.69;102174.41;5127294;28;20087;-58
2022/03/09 05:21:36;;;;;;;2.05;1.75;;;;;;;15.69;38.83;102170.09;5126834;28;20690;-57
2022/03/09 05:24:01;;;;;;;1.70;1.52;;;;;;;15.71;38.79;102173.50;5127189;28;20103;-58
2022/03/09 05:26:26;;;;;;;1.80;1.67;;;;;;;15.69;38.44;102178.16;5126651;28;20122;-57
2022/03/09 05:28:51;;;;;;;2.20;2.00;;;;;;;15.69;38.75;102174.63;5126611;28;20055;-58
2022/03/09 05:31:18;;;;;;;2.30;2.08;;;;;;;15.68;38.72;102180.97;5127109;28;20027;-57
2022/03/09 05:33:43;;;;;;;1.67;1.58;;;;;;;15.64;38.79;102169.59;5126861;28;20034;-58
2022/03/09 05:36:08;;;;;;;1.70;1.60;;;;;;;15.69;38.73;102185.34;5126585;28;20055;-57
2022/03/09 05:38:34;;;;;;;1.80;1.70;;;;;;;15.69;38.79;102188.88;5126399;27;20034;-58
2022/03/09 05:40:59;;;;;;;3.03;1.85;;;;;;;15.68;38.59;102180.97;5126136;28;20023;-58
2022/03/09 05:43:24;;;;;;;2.20;2.00;;;;;;;15.69;38.65;102188.03;5126287;28;20085;-58
2022/03/09 05:45:49;;;;;;;1.60;1.50;;;;;;;15.70;38.71;102192.41;5126363;28;20525;-56
2022/03/09 05:48:15;;;;;;;1.85;1.73;;;;;;;15.70;38.72;102192.41;5126744;28;20081;-58
2022/03/09 05:50:40;;;;;;;1.92;1.83;;;;;;;15.69;38.51;102198.75;5126246;28;20088;-58
2022/03/09 05:53:05;;;;;;;2.30;1.88;;;;;;;15.69;38.71;102190.72;5126405;28;20024;-58
2022/03/09 05:55:30;;;;;;;1.80;1.70;;;;;;;15.69;38.69;102196.06;5125599;28;20027;-58
2022/03/09 05:57:56;;;;;;;2.10;1.90;;;;;;;15.69;38.57;102194.25;5126524;28;20052;-58
2022/03/09 06:00:21;;;;;;;1.70;1.60;;;;;;;15.69;38.48;102194.25;5125724;28;20121;-58
2022/03/09 06:02:46;;;;;;;2.42;2.05;;;;;;;15.67;38.56;102187.25;5126159;28;20035;-58
2022/03/09 06:05:11;;;;;;;2.05;1.95;;;;;;;15.69;38.56;102204.09;5124597;28;20023;-58
2022/03/09 06:07:37;;;;;;;1.83;1.50;;;;;;;15.69;38.43;102206.78;5126804;27;20028;-58
2022/03/09 06:10:02;;;;;;;2.92;2.30;;;;;;;15.64;38.44;102198.22;5125092;28;20766;-57
2022/03/09 06:12:28;;;;;;;2.25;2.05;;;;;;;15.70;38.54;102206.66;5124255;28;20024;-58
2022/03/09 06:14:55;;;;;;;2.97;2.45;;;;;;;15.75;38.41;102206.31;5124340;28;20032;-57
2022/03/09 06:17:20;;;;;;;2.85;2.58;;;;;;;15.78;38.27;102205.25;5124843;28;20015;-56
2022/03/09 06:19:45;;;;;;;3.65;2.67;;;;;;;15.84;38.31;102207.44;5120293;28;20053;-57
2022/03/09 06:22:10;;;;;;;4.07;2.70;;;;;;;15.86;38.30;102214.41;5104744;28;20024;-58
2022/03/09 06:24:36;;;;;;;3.35;2.97;;;;;;;15.88;38.22;102215.13;5122565;28;20024;-58
2022/03/09 06:27:01;;;;;;;3.50;2.97;;;;;;;15.92;38.33;102219.28;5124223;28;20024;-57
2022/03/09 06:29:26;;;;;;;3.42;2.65;;;;;;;15.93;38.31;102214.81;5124269;28;20031;-59
2022/03/09 06:31:52;;;;;;;2.75;2.47;;;;;;;15.96;38.18;102219.91;5124699;28;20027;-57
2022/03/09 06:34:17;;;;;;;3.40;3.10;;;;;;;15.97;38.29;102203.72;5125418;28;20027;-58
2022/03/09 06:36:43;;;;;;;5.60;2.90;;;;;;;16.02;38.34;102216.78;5120357;28;20120;-58
2022/03/09 06:39:09;;;;;;;2.97;2.67;;;;;;;16.05;38.35;102213.00;5123865;28;20606;-56
2022/03/09 06:41:34;;;;;;;3.45;2.70;;;;;;;16.07;38.41;102219.13;5124670;28;20058;-58
2022/03/09 06:44:00;;;;;;;3.60;3.03;;;;;;;16.09;38.44;102225.19;5124410;28;20403;-58
2022/03/09 06:46:25;;;;;;;3.22;2.72;;;;;;;16.12;38.44;102231.19;5124780;28;20034;-57
2022/03/09 06:48:50;;;;;;;3.42;2.58;;;;;;;16.15;38.48;102241.69;5124955;28;20027;-58
2022/03/09 06:51:15;;;;;;;3.78;2.90;;;;;;;16.16;38.48;102232.66;5124600;28;20083;-57
2022/03/09 06:53:40;;;;;;;3.58;2.72;;;;;;;16.19;38.46;102232.44;5124612;28;20030;-58
2022/03/09 06:56:06;;;;;;;3.05;2.70;;;;;;;16.22;38.47;102236.69;5124278;28;20031;-55
2022/03/09 06:58:31;;;;;;;3.17;2.65;;;;;;;16.24;38.52;102240.13;5124087;28;20019;-56
2022/03/09 07:00:57;;;;;;;3.72;2.67;;;;;;;16.25;38.50;102237.31;5124689;28;20015;-56
2022/03/09 07:03:23;;;;;;;4.15;2.72;;;;;;;16.29;38.54;102231.72;5124016;28;20028;-58
2022/03/09 07:05:48;;;;;;;3.50;2.67;;;;;;;16.28;38.44;102240.75;5124919;28;20030;-56
2022/03/09 07:08:13;;;;;;;2.78;2.53;;;;;;;16.33;38.33;102243.94;5124006;28;20059;-57
2022/03/09 07:10:38;;;;;;;3.50;2.70;;;;;;;16.34;38.17;102256.38;5122270;28;20062;-58
2022/03/09 07:13:03;;;;;;;3.78;2.78;;;;;;;16.35;38.32;102253.56;5121969;28;20016;-58
2022/03/09 07:15:29;;;;;;;4.85;2.72;;;;;;;16.37;38.17;102259.66;5120975;28;20102;-57
2022/03/09 07:17:54;;;;;;;3.50;2.80;;;;;;;16.40;38.31;102256.75;5124563;28;20030;-58
2022/03/09 07:20:19;;;;;;;3.50;2.55;;;;;;;16.44;38.22;102268.13;5123578;28;20082;-57
2022/03/09 07:22:46;;;;;;;3.28;2.92;;;;;;;16.46;38.21;102271.53;5123472;28;21149;-57
2022/03/09 07:25:12;;;;;;;3.67;2.85;;;;;;;16.49;38.22;102277.50;5120917;28;20156;-56
2022/03/09 07:27:38;;;;;;;3.08;2.63;;;;;;;16.54;38.13;102273.63;5121056;28;20031;-58
2022/03/09 07:30:05;;;;;;;3.00;2.70;;;;;;;16.62;38.18;102279.25;5123491;28;20012;-58
2022/03/09 07:32:30;;;;;;;3.00;2.47;;;;;;;16.67;38.08;102279.72;5123800;28;20464;-58
2022/03/09 07:34:55;;;;;;;4.57;2.78;;;;;;;16.80;37.95;102280.50;5124167;28;20019;-57
2022/03/09 07:37:20;;;;;;;3.30;2.50;;;;;;;17.01;37.64;102283.31;5125101;28;20084;-57
2022/03/09 07:39:46;;;;;;;2.85;2.50;;;;;;;17.19;37.42;102284.50;5125799;28;20031;-55
2022/03/09 07:42:11;;;;;;;2.80;2.50;;;;;;;17.27;37.10;102286.59;5125557;28;20031;-57
2022/03/09 07:44:36;;;;;;;2.75;2.30;;;;;;;17.41;36.94;102291.69;5125629;28;20049;-57
2022/03/09 07:47:02;;;;;;;2.63;2.40;;;;;;;17.52;36.93;102289.97;5124890;28;20415;-56
2022/03/09 07:49:27;;;;;;;2.70;2.47;;;;;;;17.57;36.63;102293.13;5125713;27;20083;-55
2022/03/09 07:51:52;;;;;;;2.63;2.22;;;;;;;17.57;36.61;102296.66;5125684;28;20032;-56
2022/03/09 07:54:17;;;;;;;4.78;2.60;;;;;;;17.64;36.45;102295.19;5125331;28;20053;-57
2022/03/09 07:56:43;;;;;;;2.90;2.45;;;;;;;17.75;36.13;102294.31;5126007;28;20078;-56
2022/03/09 07:59:11;;;;;;;3.05;2.22;;;;;;;17.90;35.95;102287.69;5125464;28;20031;-56
2022/03/09 08:01:36;;;;;;;3.60;2.17;;;;;;;18.07;35.64;102283.56;5123589;28;20036;-57
2022/03/09 08:04:02;;;;;;;3.05;1.90;;;;;;;18.23;35.34;102280.44;5123802;28;20032;-56
2022/03/09 08:06:27;;;;;;;2.78;2.17;;;;;;;18.34;35.01;102285.75;5123728;28;20031;-55
2022/03/09 08:08:52;;;;;;;4.28;2.38;;;;;;;18.43;34.77;102284.09;5123766;28;20024;-57
2022/03/09 08:11:17;;;;;;;3.42;2.25;;;;;;;18.53;34.77;102276.94;5123356;28;20050;-58
2022/03/09 08:13:43;;;;;;;3.08;2.35;;;;;;;18.64;34.45;102278.69;5122497;28;20513;-57
2022/03/09 08:16:08;;;;;;;2.28;1.90;;;;;;;18.77;34.36;102275.81;5126626;28;20023;-57
2022/03/09 08:18:34;;;;;;;2.85;2.13;;;;;;;18.98;34.09;102280.16;5127659;28;20063;-57
2022/03/09 08:20:59;;;;;;;2.38;2.17;;;;;;;19.31;33.65;102271.91;5127245;28;20036;-58
2022/03/09 08:23:24;;;;;;;4.18;2.28;;;;;;;19.71;33.15;102277.28;5127029;28;20043;-58
2022/03/09 08:25:50;;;;;;;3.08;1.98;;;;;;;20.10;32.54;102278.13;5126964;28;20084;-57
2022/03/09 08:28:16;;;;;;;2.90;1.98;;;;;;;20.56;32.08;102278.34;5127229;28;20048;-58
2022/03/09 08:30:41;;;;;;;2.85;2.03;;;;;;;21.12;31.21;102288.25;5127048;28;20054;-57
2022/03/09 08:33:07;;;;;;;2.15;1.75;;;;;;;21.60;30.29;102282.56;5127674;28;20024;-57
2022/03/09 08:35:32;;;;;;;2.88;2.08;;;;;;;21.93;29.92;102281.03;5127222;28;20059;-57
2022/03/09 08:37:58;;;;;;;3.90;2.22;;;;;;;22.13;29.05;102291.72;5126615;28;20084;-57
2022/03/09 08:40:23;;;;;;;2.90;2.30;;;;;;;22.27;28.82;102284.91;5126332;28;20031;-58
2022/03/09 08:42:48;;;;;;;3.00;1.80;;;;;;;22.41;28.42;102289.75;5127377;28;20063;-57
2022/03/09 08:45:14;;;;;;;3.33;2.08;;;;;;;22.62;27.99;102286.66;5126616;28;20101;-57
2022/03/09 08:47:39;;;;;;;3.22;2.28;;;;;;;22.92;28.02;102279.91;5106654;28;20028;-56
2022/03/09 08:50:05;;;;;;;2.83;2.13;;;;;;;23.28;27.36;102277.00;5106959;28;20115;-58
2022/03/09 08:52:30;;;;;;;2.83;2.00;;;;;;;23.64;26.76;102285.75;5106818;28;20020;-57
2022/03/09 08:54:56;;;;;;;3.03;2.55;;;;;;;24.03;26.22;102288.72;5106807;28;20028;-58
2022/03/09 08:57:21;;;;;;;2.88;2.30;;;;;;;24.39;26.02;102289.25;5104952;28;20026;-57
2022/03/09 08:59:46;;;;;;;3.35;1.95;;;;;;;24.71;25.47;102284.75;5106347;28;20058;-56
2022/03/09 09:02:12;;;;;;;2.30;1.70;;;;;;;25.02;24.72;102275.81;5106775;28;20027;-56
2022/03/09 09:04:37;;;;;;;2.28;1.55;;;;;;;25.29;24.49;102277.28;5106716;28;20028;-58
2022/03/09 09:07:03;;;;;;;2.65;1.50;;;;;;;25.54;24.19;102272.53;5106474;28;20486;-57
2022/03/09 09:09:28;;;;;;;2.60;1.48;;;;;;;25.78;23.89;102274.25;5126450;28;20456;-57
2022/03/09 09:11:54;;;;;;;2.63;1.42;;;;;;;26.01;23.49;102275.09;5126209;28;20016;-58
2022/03/09 09:14:19;;;;;;;2.72;1.50;;;;;;;26.20;23.17;102273.75;5125107;28;20035;-57
2022/03/09 09:16:44;;;;;;;2.22;1.60;;;;;;;26.38;22.98;102265.25;5125425;28;20015;-58
2022/03/09 09:19:10;;;;;;;2.55;1.42;;;;;;;26.52;22.82;102264.44;5126867;28;20518;-58
2022/03/09 09:21:36;;;;;;;3.13;1.40;;;;;;;26.70;22.37;102260.50;5126645;28;20075;-58
2022/03/09 09:24:01;;;;;;;2.65;1.58;;;;;;;26.81;22.06;102270.94;5126469;28;20405;-57
2022/03/09 09:26:26;;;;;;;2.28;1.42;;;;;;;26.98;21.95;102282.50;5125718;28;20080;-57
2022/03/09 09:28:51;;;;;;;2.60;1.25;;;;;;;27.11;21.87;102280.81;5126164;28;20035;-56
2022/03/09 09:31:16;;;;;;;2.08;1.30;;;;;;;27.23;21.68;102272.13;5126462;28;20027;-57
2022/03/09 09:33:42;;;;;;;2.65;1.67;;;;;;;27.32;21.48;102280.03;5126408;28;20019;-57
2022/03/09 09:36:07;;;;;;;2.28;1.40;;;;;;;27.40;21.52;102269.00;5126354;28;20035;-57
2022/03/09 09:38:32;;;;;;;2.00;1.42;;;;;;;27.52;21.28;102269.31;5125909;28;20027;-57
2022/03/09 09:40:57;;;;;;;2.53;1.30;;;;;;;27.64;21.19;102272.38;5125861;28;20023;-57
2022/03/09 09:43:24;;;;;;;1.63;1.30;;;;;;;27.73;20.85;102275.88;5124806;28;20030;-58
2022/03/09 09:45:49;;;;;;;2.33;1.55;;;;;;;27.80;20.71;102265.84;5125614;28;20072;-58
2022/03/09 09:48:15;;;;;;;2.08;1.33;;;;;;;27.89;20.67;102268.25;5126267;28;20035;-57
2022/03/09 09:50:42;;;;;;;2.28;1.40;;;;;;;27.96;20.61;102260.13;5126259;27;20055;-58
2022/03/09 09:53:10;;;;;;;2.70;1.67;;;;;;;28.00;20.40;102258.69;5125952;28;20027;-58
2022/03/09 09:55:36;;;;;;;2.45;1.35;;;;;;;28.02;20.29;102255.75;5125905;28;20047;-57
2022/03/09 09:58:02;;;;;;;1.85;1.05;;;;;;;28.09;20.57;102257.50;5126351;28;20379;-58
2022/03/09 10:00:27;;;;;;;2.45;1.40;;;;;;;27.98;20.16;102251.72;5125286;28;20043;-57
2022/03/09 10:02:53;;;;;;;1.40;1.20;;;;;;;27.51;20.43;102261.31;5126041;28;20020;-58
2022/03/09 10:05:19;;;;;;;2.17;1.52;;;;;;;26.78;21.11;102254.94;5125851;28;20019;-58
2022/03/09 10:08:02;;;;;;;1.60;1.02;;;;;;;25.82;22.05;102259.25;5125783;28;20023;-58
2022/03/09 10:10:28;;;;;;;2.90;1.65;;;;;;;25.04;23.21;102250.13;5123926;28;20016;-56
2022/03/09 10:13:09;;;;;;;2.45;1.52;;;;;;;24.30;24.03;102260.38;5125493;28;20028;-58
2022/03/09 10:15:34;;;;;;;2.20;1.50;;;;;;;23.73;24.54;102254.91;5125245;28;20089;-58
2022/03/09 10:18:11;;;;;;;3.38;1.40;;;;;;;23.24;25.25;102253.94;5125498;28;20023;-57
2022/03/09 10:20:36;;;;;;;3.35;2.08;;;;;;;22.84;25.68;102256.28;5125684;28;20075;-57
2022/03/09 10:23:02;;;;;;;2.63;1.92;;;;;;;22.51;26.33;102251.69;5125377;28;20239;-57
2022/03/09 10:25:27;;;;;;;2.53;1.85;;;;;;;22.21;26.35;102248.44;5125019;28;20460;-55
2022/03/09 10:27:53;;;;;;;2.05;1.50;;;;;;;21.96;27.02;102245.53;5125270;28;20034;-58
2022/03/09 10:30:23;;;;;;;2.00;1.50;;;;;;;21.77;27.45;102252.97;5124615;28;20118;-58
2022/03/09 10:32:58;;;;;;;3.22;1.40;;;;;;;21.59;27.63;102248.41;5125519;28;20024;-56
2022/03/09 10:35:29;;;;;;;2.95;1.95;;;;;;;21.42;27.88;102243.81;5125465;28;20084;-58
2022/03/09 10:37:55;;;;;;;1.85;1.40;;;;;;;21.29;28.04;102248.72;5123844;28;20031;-57
2022/03/09 10:40:21;;;;;;;2.42;1.63;;;;;;;21.17;28.56;102250.78;5124726;28;20019;-57
2022/03/09 10:42:47;;;;;;;2.15;1.67;;;;;;;21.05;29.00;102251.97;5124958;27;20047;-57
2022/03/09 10:45:17;;;;;;;2.85;1.80;;;;;;;20.93;28.66;102251.31;5124405;28;20034;-57
2022/03/09 10:47:44;;;;;;;2.70;1.63;;;;;;;20.83;29.40;102259.47;5124927;28;20023;-57
2022/03/09 10:50:30;;;;;;;2.58;1.50;;;;;;;20.73;29.12;102253.28;5125241;28;20023;-57
2022/03/09 10:53:01;;;;;;;2.33;1.77;;;;;;;20.64;29.59;102254.13;5125121;28;20194;-57
2022/03/09 10:55:36;;;;;;;2.17;1.60;;;;;;;20.57;29.78;102258.44;5123619;28;20066;-57
2022/03/09 10:58:18;;;;;;;2.17;1.65;;;;;;;20.49;30.06;102259.19;5125123;28;20393;-57
2022/03/09 11:00:50;;;;;;;2.00;1.40;;;;;;;20.42;30.21;102255.31;5124288;28;20059;-58
2022/03/09 11:03:24;;;;;;;2.03;1.27;;;;;;;20.36;30.47;102256.75;5124776;28;20031;-58
2022/03/09 11:05:51;;;;;;;2.53;1.67;;;;;;;20.30;30.77;102251.06;5124944;28;20030;-57
2022/03/09 11:08:17;;;;;;;2.83;1.73;;;;;;;20.26;30.54;102255.91;5124097;28;20031;-57
2022/03/09 11:10:46;;;;;;;2.70;1.85;;;;;;;20.21;30.65;102242.00;5124130;28;20039;-57
2022/03/09 11:13:12;;;;;;;;;;;;;;;20.16;30.96;102249.69;5124819;28;20035;-56
2022/03/09 11:15:38;;;;;;;2.03;1.55;;;;;;;20.13;30.90;102242.72;5123939;28;19915;-55
2022/03/09 11:18:04;;;;;;;1.77;1.60;;;;;;;20.13;31.37;102244.56;5123408;28;20108;-57
2022/03/09 11:20:29;;;;;;;2.47;1.80;;;;;;;20.08;31.55;102227.94;5124078;28;20055;-57